Terminal Aerodrome Forecast
Issued by NWS

Home | Current Version | Previous Version | Text Only | Print | Product List | Glossary On
Versions: 1 2 3 4 5 6 7 8 9 10 11 12 13 14 15 16 17 18 19 20 21 22 23 24 25 26 27 28 29 30
000
FTUS42 KCAE 182300
TAFOGB
TAF
KOGB 182334Z 1900/1924 00000KT P6SM SCT025 BKN070
     FM190500 00000KT P6SM BKN012
     FM190800 VRB03KT 4SM BR OVC006
     FM191100 09004KT 3SM -SHRA BKN003 OVC010
     FM191500 14007KT 5SM -RA BR SCT007 OVC015
     FM191900 18013G20KT 5SM -SHRA BR BKN025 OVC040=

USA.gov is the U.S. government's official web portal to all federal, state and local government web resources and services.